KFRH/FRH METAR and TAF weather

Enter ICAO airport designator
Station Type Date Time Source
KFRH METAR 2021/04/14 20:55 UTC NOAA

KFRH 142055Z AUTO 30006KT 10SM CLR 17/M03 A3004 RMK AO1


Station Type Date Time Source
KFRH Decoded METAR 2021/04/14 20:55 UTC NOAA

Station name not available
Apr 14, 2021 - 04:55 PM EDT / 2021.04.14 2055 UTC
Wind: from the WNW (300 degrees) at 7 MPH (6 KT):0
Visibility: 10 mile(s):0
Sky conditions: clear
Temperature: 62 F (17 C)
Dew Point: 26 F (-3 C)
Relative Humidity: 25%
Pressure (altimeter): 30.04 in. Hg (1017 hPa)
ob: KFRH 142055Z AUTO 30006KT 10SM CLR 17/M03 A3004 RMK AO1
cycle: 21

Station Type Date Time Source
KFRH TAF UTC NOAA

Error!

Example: see airport list